Solidao, Brazil
Current Conditions -  °F | °C
As of 8:00 AM on Friday 21 Nov 2014 (Local Time) from SBMK Reporting Station
Few Clouds Few Clouds  
Wind Chill: 72°   Ceiling: Unl
Heat Index: 72°   Visibility: 6mi
Dew Point: 63°   Wind: 6mph
Humidity: 73%   Direction: 80°E
Pressure: 30.06"   Gusts: NA
Location:  15.93°S, 43.4°W
Report Text: SBMK 211000Z 08005KT 9999 FEW030 22/17 Q1018
Loading
Personal Weather Stations






























Interactive Weather Map New forecast layout! Learn more

10-Day Weather Forecast

Advertisements
Track Severe Weather on mobile